createdAt,value
2018-05-04T00:00:00.880Z,9.20
2018-05-04T00:02:29.155Z,9.10
2018-05-04T00:04:57.427Z,9.10
2018-05-04T00:07:25.712Z,9.10
2018-05-04T00:09:54.812Z,9.00
2018-05-04T00:12:24.930Z,8.90
2018-05-04T00:14:53.979Z,8.90
2018-05-04T00:17:23.205Z,8.90
2018-05-04T00:19:51.516Z,8.90
2018-05-04T00:22:20.551Z,8.80
2018-05-04T00:24:48.811Z,8.80
2018-05-04T00:27:17.102Z,8.80
2018-05-04T00:29:45.404Z,8.80
2018-05-04T00:32:13.696Z,8.70
2018-05-04T00:34:42.799Z,8.70
2018-05-04T00:37:11.143Z,8.60
2018-05-04T00:39:39.435Z,8.70
2018-05-04T00:42:07.729Z,8.60
2018-05-04T00:44:37.721Z,8.60
2018-05-04T00:47:06.021Z,8.50
2018-05-04T00:49:35.097Z,8.50
2018-05-04T00:52:03.350Z,8.50
2018-05-04T00:54:31.630Z,8.50
2018-05-04T00:56:59.908Z,8.50
2018-05-04T00:59:28.305Z,8.40
2018-05-04T01:01:56.601Z,8.40
2018-05-04T01:04:24.857Z,8.30
2018-05-04T01:06:53.133Z,8.30
2018-05-04T01:09:21.429Z,8.30
2018-05-04T01:11:49.808Z,8.30
2018-05-04T01:14:18.884Z,8.20
2018-05-04T01:16:47.161Z,8.20
2018-05-04T01:19:15.438Z,8.20
2018-05-04T01:21:43.735Z,8.10
2018-05-04T01:24:12.047Z,8.10
2018-05-04T01:26:40.380Z,8.00
2018-05-04T01:29:08.673Z,8.00
2018-05-04T01:31:37.703Z,7.90
2018-05-04T01:34:07.146Z,7.90
2018-05-04T01:36:35.427Z,7.80
2018-05-04T01:39:03.723Z,7.80
2018-05-04T01:41:32.754Z,7.60
2018-05-04T01:44:01.003Z,7.60
2018-05-04T01:46:30.070Z,7.50
2018-05-04T01:48:58.422Z,7.50
2018-05-04T01:51:26.704Z,7.50
2018-05-04T01:53:54.991Z,7.50
2018-05-04T01:56:23.275Z,7.50
2018-05-04T01:58:51.545Z,7.40
2018-05-04T02:01:19.852Z,7.40
2018-05-04T02:03:48.159Z,7.40
2018-05-04T02:06:16.968Z,7.40
2018-05-04T02:08:45.256Z,7.30
2018-05-04T02:11:13.511Z,7.30
2018-05-04T02:13:41.796Z,7.30
2018-05-04T02:16:10.914Z,7.30
2018-05-04T02:18:39.186Z,7.30
2018-05-04T02:21:07.465Z,7.30
2018-05-04T02:23:35.844Z,7.30
2018-05-04T02:26:04.152Z,7.20
2018-05-04T02:28:32.432Z,7.20
2018-05-04T02:31:00.719Z,7.20
2018-05-04T02:33:29.024Z,7.10
2018-05-04T02:35:57.311Z,7.10
2018-05-04T02:38:25.599Z,7.10
2018-05-04T02:40:53.867Z,7.00
2018-05-04T02:43:22.152Z,7.10
2018-05-04T02:45:50.413Z,7.10
2018-05-04T02:48:18.669Z,7.10
2018-05-04T02:50:46.943Z,7.10
2018-05-04T02:53:15.196Z,7.00
2018-05-04T02:55:44.234Z,7.00
2018-05-04T02:58:12.499Z,7.00
2018-05-04T03:00:40.779Z,6.90
2018-05-04T03:03:09.023Z,6.90
2018-05-04T03:05:37.292Z,6.90
2018-05-04T03:08:06.333Z,6.90
2018-05-04T03:10:34.601Z,6.80
2018-05-04T03:13:02.892Z,6.90
2018-05-04T03:15:31.146Z,6.90
2018-05-04T03:17:59.415Z,6.80
2018-05-04T03:20:27.672Z,6.80
2018-05-04T03:22:56.012Z,6.80
2018-05-04T03:25:24.300Z,6.70
2018-05-04T03:27:53.346Z,6.70
2018-05-04T03:30:21.609Z,6.60
2018-05-04T03:32:50.719Z,6.60
2018-05-04T03:37:54.355Z,6.60
2018-05-04T03:40:24.127Z,6.50
2018-05-04T03:42:52.482Z,6.50
2018-05-04T03:45:20.734Z,6.50
2018-05-04T03:47:49.903Z,6.50
2018-05-04T03:50:18.182Z,6.40
2018-05-04T03:52:46.474Z,6.50
2018-05-04T03:55:14.752Z,6.50
2018-05-04T03:57:56.591Z,6.40
2018-05-04T04:00:36.674Z,6.40
2018-05-04T04:03:16.696Z,6.40
2018-05-04T04:05:45.735Z,6.50
2018-05-04T04:08:14.032Z,6.40
2018-05-04T04:10:42.296Z,6.50
2018-05-04T04:13:10.571Z,6.60
2018-05-04T04:15:38.828Z,6.50
2018-05-04T04:18:07.136Z,6.50
2018-05-04T04:20:36.218Z,6.60
2018-05-04T04:23:04.484Z,6.60
2018-05-04T04:25:32.813Z,6.60
2018-05-04T04:28:01.078Z,6.70
2018-05-04T04:30:29.364Z,6.70
2018-05-04T04:32:58.407Z,6.90
2018-05-04T04:35:26.712Z,6.80
2018-05-04T04:37:55.750Z,7.00
2018-05-04T04:40:24.024Z,6.90
2018-05-04T04:42:52.299Z,7.00
2018-05-04T04:45:20.575Z,7.10
2018-05-04T04:47:48.875Z,7.20
2018-05-04T04:50:17.160Z,7.30
2018-05-04T04:52:45.454Z,7.40
2018-05-04T04:55:13.724Z,7.40
2018-05-04T04:57:42.010Z,7.50
2018-05-04T05:00:10.276Z,7.60
2018-05-04T05:02:38.537Z,7.70
2018-05-04T05:05:06.814Z,7.80
2018-05-04T05:07:35.104Z,7.90
2018-05-04T05:10:03.494Z,7.90
2018-05-04T05:12:33.259Z,8.00
2018-05-04T05:15:01.537Z,8.00
2018-05-04T05:17:29.836Z,8.20
2018-05-04T05:19:58.118Z,8.30
2018-05-04T05:22:26.399Z,8.40
2018-05-04T05:24:54.802Z,8.50
2018-05-04T05:27:23.196Z,8.60
2018-05-04T05:29:51.487Z,8.70
2018-05-04T05:32:20.414Z,8.80
2018-05-04T05:34:48.687Z,9.00
2018-05-04T05:37:16.961Z,9.10
2018-05-04T05:39:45.248Z,9.20
2018-05-04T05:42:13.529Z,9.30
2018-05-04T05:44:41.795Z,9.40
2018-05-04T05:47:10.103Z,9.50
2018-05-04T05:49:40.710Z,9.60
2018-05-04T05:52:09.012Z,9.60
2018-05-04T05:54:37.848Z,9.70
2018-05-04T05:57:06.860Z,9.90
2018-05-04T05:59:35.139Z,9.90
2018-05-04T06:02:05.151Z,10.00
2018-05-04T06:04:34.948Z,10.20
2018-05-04T06:07:03.210Z,10.20
2018-05-04T06:09:31.526Z,10.40
2018-05-04T06:11:59.809Z,10.40
2018-05-04T06:14:28.088Z,10.50
2018-05-04T06:16:56.394Z,10.60
2018-05-04T06:19:24.774Z,10.60
2018-05-04T06:21:54.019Z,10.90
2018-05-04T06:24:22.323Z,10.80
2018-05-04T06:26:50.584Z,11.00
2018-05-04T06:29:18.956Z,11.10
2018-05-04T06:31:47.227Z,11.10
2018-05-04T06:34:15.549Z,11.20
2018-05-04T06:36:43.867Z,11.30
2018-05-04T06:39:12.164Z,11.40
2018-05-04T06:41:40.419Z,11.50
2018-05-04T06:44:08.731Z,11.60
2018-05-04T06:46:36.991Z,11.70
2018-05-04T06:49:05.327Z,11.90
2018-05-04T06:51:33.599Z,12.00
2018-05-04T06:54:01.876Z,12.20
2018-05-04T06:56:30.167Z,12.20
2018-05-04T06:58:58.427Z,12.30
2018-05-04T07:01:26.726Z,12.40
2018-05-04T07:03:54.997Z,12.50
2018-05-04T07:06:23.371Z,12.60
2018-05-04T07:08:51.717Z,12.70
2018-05-04T07:11:19.959Z,12.80
2018-05-04T07:13:48.339Z,12.90
2018-05-04T07:16:16.667Z,13.00
2018-05-04T07:18:44.967Z,13.00
2018-05-04T07:21:13.255Z,13.10
2018-05-04T07:23:41.557Z,13.30
2018-05-04T07:26:11.366Z,13.50
2018-05-04T07:28:39.716Z,13.50
2018-05-04T07:31:08.707Z,13.60
2018-05-04T07:33:36.984Z,13.60
2018-05-04T07:36:05.309Z,13.80
2018-05-04T07:38:33.582Z,14.00
2018-05-04T07:41:02.651Z,14.20
2018-05-04T07:43:30.976Z,14.20
2018-05-04T07:45:59.261Z,14.30
2018-05-04T07:48:27.560Z,14.30
2018-05-04T07:50:55.852Z,14.40
2018-05-04T07:53:25.655Z,14.60
2018-05-04T07:55:53.999Z,14.50
2018-05-04T07:58:22.287Z,14.60
2018-05-04T08:00:50.584Z,14.70
2018-05-04T08:03:18.863Z,14.80
2018-05-04T08:05:47.138Z,14.80
2018-05-04T08:08:15.394Z,15.00
2018-05-04T08:10:43.687Z,15.10
2018-05-04T08:13:11.967Z,15.10
2018-05-04T08:15:40.241Z,15.30
2018-05-04T08:18:08.535Z,15.30
2018-05-04T08:20:36.873Z,15.40
2018-05-04T08:23:05.197Z,15.50
2018-05-04T08:25:33.452Z,15.50
2018-05-04T08:28:01.789Z,15.50
2018-05-04T08:30:30.113Z,15.60
2018-05-04T08:32:58.401Z,15.70
2018-05-04T08:35:26.827Z,15.70
2018-05-04T08:37:55.865Z,15.80
2018-05-04T08:40:24.164Z,15.70
2018-05-04T08:42:52.444Z,15.80
2018-05-04T08:45:20.776Z,15.80
2018-05-04T08:47:49.060Z,15.80
2018-05-04T08:50:17.349Z,15.90
2018-05-04T08:52:45.635Z,16.00
2018-05-04T08:55:13.921Z,16.20
2018-05-04T08:57:42.196Z,16.10
2018-05-04T09:00:10.479Z,16.20
2018-05-04T09:02:38.764Z,16.30
2018-05-04T09:05:07.826Z,16.50
2018-05-04T09:07:36.084Z,16.40
2018-05-04T09:10:04.391Z,16.50
2018-05-04T09:12:32.719Z,16.50
2018-05-04T09:15:01.045Z,16.60
2018-05-04T09:17:29.326Z,16.60
2018-05-04T09:19:58.384Z,16.60
2018-05-04T09:22:26.676Z,16.60
2018-05-04T09:24:54.961Z,16.70
2018-05-04T09:27:23.244Z,16.90
2018-05-04T09:29:51.618Z,17.00
2018-05-04T09:32:19.915Z,17.00
2018-05-04T09:34:48.964Z,17.00
2018-05-04T09:37:17.272Z,16.90
2018-05-04T09:39:45.540Z,16.90
2018-05-04T09:42:15.332Z,17.00
2018-05-04T09:44:43.608Z,17.00
2018-05-04T09:47:11.863Z,17.10
2018-05-04T09:49:40.144Z,17.10
2018-05-04T09:52:08.415Z,17.10
2018-05-04T09:54:36.764Z,17.20
2018-05-04T09:57:05.047Z,17.30
2018-05-04T09:59:33.331Z,17.40
2018-05-04T10:02:01.598Z,17.40
2018-05-04T10:04:29.933Z,17.40
2018-05-04T10:06:58.243Z,17.50
2018-05-04T10:09:27.279Z,17.70
2018-05-04T10:11:55.583Z,17.60
2018-05-04T10:14:23.856Z,17.70
2018-05-04T10:16:52.135Z,17.70
2018-05-04T10:19:20.427Z,17.70
2018-05-04T10:21:48.785Z,17.70
2018-05-04T10:24:17.175Z,17.50
2018-05-04T10:26:45.473Z,17.40
2018-05-04T10:29:13.775Z,17.30
2018-05-04T10:31:42.128Z,17.30
2018-05-04T10:34:11.191Z,17.60
2018-05-04T10:36:40.277Z,17.70
2018-05-04T10:39:08.593Z,17.70
2018-05-04T10:41:37.640Z,18.00
2018-05-04T10:44:05.935Z,18.00
2018-05-04T10:46:34.316Z,18.30
2018-05-04T10:49:02.631Z,18.40
2018-05-04T10:51:31.712Z,18.70
2018-05-04T10:54:00.019Z,18.60
2018-05-04T10:56:28.310Z,18.80
2018-05-04T10:58:56.587Z,19.00
2018-05-04T11:01:24.884Z,19.20
2018-05-04T11:03:53.271Z,19.30
2018-05-04T11:06:21.573Z,19.30
2018-05-04T11:08:49.852Z,19.30
2018-05-04T11:11:18.929Z,19.10
2018-05-04T11:13:47.301Z,19.00
2018-05-04T11:16:15.543Z,18.90
2018-05-04T11:18:43.844Z,18.80
2018-05-04T11:21:12.149Z,18.70
2018-05-04T11:23:40.427Z,18.80
2018-05-04T11:26:09.480Z,19.00
2018-05-04T11:28:37.897Z,19.00
2018-05-04T11:31:06.239Z,19.20
2018-05-04T11:33:34.493Z,19.40
2018-05-04T11:36:02.766Z,19.70
2018-05-04T11:38:31.063Z,19.80
2018-05-04T11:40:59.433Z,20.00
2018-05-04T11:43:27.711Z,20.10
2018-05-04T11:45:56.020Z,20.20
2018-05-04T11:48:25.104Z,20.10
2018-05-04T11:50:53.389Z,20.00
2018-05-04T11:53:21.691Z,19.90
2018-05-04T11:55:50.719Z,19.70
2018-05-04T11:58:18.996Z,19.70
2018-05-04T12:00:47.779Z,19.80
2018-05-04T12:03:16.056Z,19.60
2018-05-04T12:05:44.355Z,19.50
2018-05-04T12:08:12.645Z,19.20
2018-05-04T12:10:42.489Z,18.60
2018-05-04T12:13:10.732Z,18.60
2018-05-04T12:15:39.026Z,18.60
2018-05-04T12:18:07.401Z,18.50
2018-05-04T12:20:35.712Z,18.40
2018-05-04T12:23:03.979Z,18.40
2018-05-04T12:25:32.256Z,18.50
2018-05-04T12:28:00.552Z,18.40
2018-05-04T12:30:28.949Z,18.40
2018-05-04T12:32:57.239Z,18.40
2018-05-04T12:35:25.829Z,18.50
2018-05-04T12:37:54.232Z,18.50
2018-05-04T12:40:22.503Z,18.60
2018-05-04T12:42:50.755Z,18.60
2018-05-04T12:45:19.055Z,18.70
2018-05-04T12:47:47.439Z,18.80
2018-05-04T12:50:15.730Z,18.80
2018-05-04T12:52:44.776Z,18.60
2018-05-04T12:55:13.289Z,18.60
2018-05-04T12:57:41.548Z,18.60
2018-05-04T13:00:09.912Z,18.70
2018-05-04T13:02:38.180Z,18.70
2018-05-04T13:05:06.455Z,18.70
2018-05-04T13:07:34.707Z,18.80
2018-05-04T13:10:03.024Z,18.80
2018-05-04T13:12:31.323Z,18.70
2018-05-04T13:15:00.382Z,18.50
2018-05-04T13:17:28.737Z,18.50
2018-05-04T13:19:56.972Z,18.50
2018-05-04T13:22:26.063Z,18.70
2018-05-04T13:24:54.367Z,18.70
2018-05-04T13:27:23.587Z,18.70
2018-05-04T13:29:51.836Z,18.70
2018-05-04T13:32:20.136Z,18.70
2018-05-04T13:34:48.428Z,18.70
2018-05-04T13:37:17.107Z,18.80
2018-05-04T13:39:45.389Z,18.80
2018-05-04T13:42:13.715Z,18.80
2018-05-04T13:44:42.039Z,18.80
2018-05-04T13:47:10.260Z,18.80
2018-05-04T13:49:38.570Z,18.80
2018-05-04T13:52:06.855Z,18.90
2018-05-04T13:54:35.150Z,18.90
2018-05-04T13:57:03.447Z,19.00
2018-05-04T13:59:31.827Z,18.90
2018-05-04T14:02:00.124Z,18.90
2018-05-04T14:04:29.187Z,18.90
2018-05-04T14:06:57.503Z,18.90
2018-05-04T14:09:25.799Z,19.00
2018-05-04T14:11:54.132Z,19.10
2018-05-04T14:14:22.420Z,19.20
2018-05-04T14:16:51.466Z,19.20
2018-05-04T14:19:19.795Z,19.20
2018-05-04T14:21:48.147Z,19.20
2018-05-04T14:24:16.456Z,19.20
2018-05-04T14:26:46.287Z,19.10
2018-05-04T14:29:14.602Z,19.10
2018-05-04T14:31:42.887Z,19.10
2018-05-04T14:34:11.167Z,19.10
2018-05-04T14:36:39.546Z,19.10
2018-05-04T14:39:07.853Z,19.20
2018-05-04T14:41:36.893Z,19.30
2018-05-04T14:44:05.187Z,19.20
2018-05-04T14:46:33.504Z,19.30
2018-05-04T14:49:01.804Z,19.30
2018-05-04T14:51:30.112Z,19.30
2018-05-04T14:53:58.471Z,19.30
2018-05-04T14:56:26.736Z,19.30
2018-05-04T14:58:55.060Z,19.40
2018-05-04T15:01:23.373Z,19.40
2018-05-04T15:03:52.422Z,19.50
2018-05-04T15:06:20.673Z,19.50
2018-05-04T15:08:48.969Z,19.60
2018-05-04T15:11:17.222Z,19.70
2018-05-04T15:13:45.539Z,19.80
2018-05-04T15:16:13.846Z,19.90
2018-05-04T15:18:42.881Z,20.10
2018-05-04T15:21:11.179Z,20.10
2018-05-04T15:23:39.485Z,20.30
2018-05-04T15:26:08.565Z,20.80
2018-05-04T15:28:37.599Z,21.30
2018-05-04T15:31:06.643Z,21.90
2018-05-04T15:33:34.936Z,21.80
2018-05-04T15:36:04.056Z,23.40
2018-05-04T15:38:32.344Z,23.30
2018-05-04T15:41:00.630Z,24.00
2018-05-04T15:43:28.975Z,24.40
2018-05-04T15:45:58.463Z,25.50
2018-05-04T15:48:32.311Z,25.40
2018-05-04T15:51:06.224Z,26.00
2018-05-04T15:53:34.538Z,26.30
2018-05-04T15:56:02.839Z,26.60
2018-05-04T15:58:31.199Z,27.40
2018-05-04T16:00:59.523Z,27.80
2018-05-04T16:03:27.965Z,28.70
2018-05-04T16:05:56.237Z,29.20
2018-05-04T16:08:24.554Z,29.60
2018-05-04T16:10:52.817Z,29.90
2018-05-04T16:13:21.986Z,29.40
2018-05-04T16:15:50.573Z,29.30
2018-05-04T16:18:19.656Z,29.60
2018-05-04T16:20:48.056Z,29.50
2018-05-04T16:23:16.349Z,29.80
2018-05-04T16:25:44.803Z,30.50
2018-05-04T16:28:13.888Z,31.20
2018-05-04T16:30:42.272Z,31.10
2018-05-04T16:33:11.354Z,31.00
2018-05-04T16:35:39.648Z,30.90
2018-05-04T16:38:07.919Z,31.10
2018-05-04T16:40:36.397Z,31.30
2018-05-04T16:43:04.703Z,31.70
2018-05-04T16:45:33.064Z,32.00
2018-05-04T16:48:06.918Z,31.90
2018-05-04T16:50:35.249Z,32.30
2018-05-04T16:53:04.302Z,32.30
2018-05-04T16:55:32.600Z,32.30
2018-05-04T16:58:02.411Z,32.40
2018-05-04T17:00:30.700Z,32.40
2018-05-04T17:02:58.987Z,32.80
2018-05-04T17:05:27.270Z,32.60
2018-05-04T17:07:56.323Z,32.10
2018-05-04T17:10:24.689Z,32.00
2018-05-04T17:12:52.955Z,32.00
2018-05-04T17:15:21.261Z,31.90
2018-05-04T17:17:49.561Z,31.70
2018-05-04T17:20:18.655Z,31.20
2018-05-04T17:22:47.717Z,30.20
2018-05-04T17:25:16.014Z,30.10
2018-05-04T17:27:44.324Z,27.40
2018-05-04T17:30:12.603Z,26.90
2018-05-04T17:32:41.667Z,24.60
2018-05-04T17:35:09.943Z,24.40
2018-05-04T17:37:38.226Z,23.50
2018-05-04T17:40:06.505Z,22.70
2018-05-04T17:42:34.815Z,22.10
2018-05-04T17:45:03.115Z,21.50
2018-05-04T17:47:31.550Z,21.00
2018-05-04T17:49:59.817Z,20.60
2018-05-04T17:52:28.865Z,19.90
2018-05-04T17:54:57.208Z,19.80
2018-05-04T17:57:26.366Z,19.30
2018-05-04T17:59:54.660Z,19.30
2018-05-04T18:02:22.920Z,19.20
2018-05-04T18:04:51.183Z,19.10
2018-05-04T18:07:19.495Z,18.90
2018-05-04T18:09:48.583Z,18.70
2018-05-04T18:12:16.878Z,18.60
2018-05-04T18:14:45.202Z,18.60
2018-05-04T18:17:13.523Z,18.40
2018-05-04T18:19:42.608Z,18.10
2018-05-04T18:22:11.698Z,18.00
2018-05-04T18:24:40.786Z,17.90
2018-05-04T18:27:09.083Z,17.80
2018-05-04T18:29:37.352Z,17.80
2018-05-04T18:32:05.640Z,17.70
2018-05-04T18:34:34.756Z,17.60
2018-05-04T18:37:03.068Z,17.50
2018-05-04T18:39:31.335Z,17.40
2018-05-04T18:41:59.631Z,17.30
2018-05-04T18:44:27.908Z,17.20
2018-05-04T18:46:56.189Z,17.10
2018-05-04T18:49:25.992Z,16.80
2018-05-04T18:51:54.319Z,16.80
2018-05-04T18:54:22.736Z,16.70
2018-05-04T18:56:50.937Z,16.60
2018-05-04T18:59:19.227Z,16.40
2018-05-04T19:01:47.559Z,16.40
2018-05-04T19:04:15.835Z,16.20
2018-05-04T19:06:44.131Z,16.10
2018-05-04T19:09:12.526Z,16.00
2018-05-04T19:11:40.841Z,15.90
2018-05-04T19:14:09.874Z,15.70
2018-05-04T19:16:38.182Z,15.70
2018-05-04T19:19:06.473Z,15.60
2018-05-04T19:21:34.788Z,15.50
2018-05-04T19:24:03.083Z,15.40
2018-05-04T19:26:31.367Z,15.30
2018-05-04T19:28:59.663Z,15.30
2018-05-04T19:31:28.753Z,15.10
2018-05-04T19:36:31.663Z,15.10
2018-05-04T19:38:59.988Z,15.00
2018-05-04T19:41:28.272Z,14.90
2018-05-04T19:43:56.571Z,14.90
2018-05-04T19:46:24.864Z,14.80
2018-05-04T19:48:54.675Z,14.60
2018-05-04T19:51:23.716Z,14.60
2018-05-04T19:53:52.030Z,14.50
2018-05-04T19:56:20.299Z,14.50
2018-05-04T19:58:48.689Z,14.50
2018-05-04T20:01:16.916Z,14.40
2018-05-04T20:03:45.191Z,14.40
2018-05-04T20:06:13.492Z,14.40
2018-05-04T20:08:41.795Z,14.30
2018-05-04T20:11:10.057Z,14.30
2018-05-04T20:13:38.380Z,14.20
2018-05-04T20:16:06.699Z,14.10
2018-05-04T20:18:35.007Z,14.00
2018-05-04T20:21:04.085Z,13.90
2018-05-04T20:23:32.365Z,13.90
2018-05-04T20:26:00.735Z,13.90
2018-05-04T20:28:29.068Z,13.80
2018-05-04T20:30:57.466Z,13.80
2018-05-04T20:33:25.771Z,13.70
2018-05-04T20:35:54.039Z,13.60
2018-05-04T20:38:22.339Z,13.60
2018-05-04T20:40:50.591Z,13.50
2018-05-04T20:43:18.904Z,13.50
2018-05-04T20:45:47.201Z,13.40
2018-05-04T20:48:16.243Z,13.30
2018-05-04T20:50:44.563Z,13.30
2018-05-04T20:53:12.850Z,13.30
2018-05-04T20:55:41.179Z,13.20
2018-05-04T20:58:11.041Z,13.10
2018-05-04T21:00:39.307Z,13.00
2018-05-04T21:03:07.618Z,13.10
2018-05-04T21:05:35.955Z,13.00
2018-05-04T21:08:04.244Z,13.00
2018-05-04T21:10:32.544Z,13.00
2018-05-04T21:13:00.823Z,13.00
2018-05-04T21:15:29.163Z,12.90
2018-05-04T21:17:57.428Z,12.90
2018-05-04T21:20:25.684Z,12.80
2018-05-04T21:22:53.979Z,12.80
2018-05-04T21:25:22.371Z,12.70
2018-05-04T21:27:50.641Z,12.60
2018-05-04T21:30:18.926Z,12.50
2018-05-04T21:32:47.981Z,12.40
2018-05-04T21:35:16.276Z,12.40
2018-05-04T21:37:45.351Z,12.40
2018-05-04T21:40:13.663Z,12.30
2018-05-04T21:42:41.969Z,12.30
2018-05-04T21:45:10.253Z,12.20
2018-05-04T21:47:38.569Z,12.10
2018-05-04T21:50:06.839Z,12.10
2018-05-04T21:52:35.127Z,12.10
2018-05-04T21:55:03.412Z,12.00
2018-05-04T21:57:31.742Z,12.00
2018-05-04T22:00:00.052Z,11.90
2018-05-04T22:02:28.328Z,11.90
2018-05-04T22:04:56.634Z,11.80
2018-05-04T22:07:24.995Z,11.80
2018-05-04T22:09:54.065Z,11.70
2018-05-04T22:12:22.366Z,11.60
2018-05-04T22:14:50.649Z,11.70
2018-05-04T22:17:18.947Z,11.60
2018-05-04T22:19:47.290Z,11.60
2018-05-04T22:22:15.592Z,11.60
2018-05-04T22:24:44.652Z,11.50
2018-05-04T22:27:12.940Z,11.50
2018-05-04T22:29:41.233Z,11.50
2018-05-04T22:32:10.280Z,11.50
2018-05-04T22:34:38.551Z,11.40
2018-05-04T22:37:06.855Z,11.40
2018-05-04T22:39:35.169Z,11.40
2018-05-04T22:42:04.208Z,11.30
2018-05-04T22:44:32.531Z,11.30
2018-05-04T22:47:00.849Z,11.30
2018-05-04T22:49:29.160Z,11.30
2018-05-04T22:51:57.524Z,11.20
2018-05-04T22:54:25.786Z,11.20
2018-05-04T22:56:54.110Z,11.20
2018-05-04T22:59:22.415Z,11.10
2018-05-04T23:01:50.845Z,11.00
2018-05-04T23:04:19.599Z,11.00
2018-05-04T23:06:48.319Z,10.90
2018-05-04T23:09:16.619Z,10.80
2018-05-04T23:11:45.675Z,10.80
2018-05-04T23:14:13.992Z,10.80
2018-05-04T23:16:43.060Z,10.70
2018-05-04T23:19:11.340Z,10.70
2018-05-04T23:21:39.646Z,10.70
2018-05-04T23:24:07.954Z,10.70
2018-05-04T23:26:36.375Z,10.60
2018-05-04T23:29:04.671Z,10.60
2018-05-04T23:31:33.715Z,10.60
2018-05-04T23:34:02.020Z,10.50
2018-05-04T23:36:30.299Z,10.60
2018-05-04T23:38:58.596Z,10.50
2018-05-04T23:41:26.903Z,10.40
2018-05-04T23:43:55.193Z,10.40
2018-05-04T23:46:23.496Z,10.40
2018-05-04T23:48:51.820Z,10.40
2018-05-04T23:51:20.127Z,10.30
2018-05-04T23:53:48.399Z,10.30
2018-05-04T23:56:16.697Z,10.30
2018-05-04T23:58:44.991Z,10.30
